createdAt,value
2018-03-16T00:00:24.362Z,85.40
2018-03-16T00:02:50.386Z,81.97
2018-03-16T00:05:16.396Z,78.00
2018-03-16T00:07:42.541Z,86.43
2018-03-16T00:10:08.538Z,83.55
2018-03-16T00:12:34.791Z,83.80
2018-03-16T00:15:00.846Z,92.82
2018-03-16T00:17:26.890Z,91.20
2018-03-16T00:19:52.946Z,83.70
2018-03-16T00:22:31.180Z,84.15
2018-03-16T00:24:57.251Z,86.05
2018-03-16T00:27:23.469Z,74.85
2018-03-16T00:29:49.461Z,86.78
2018-03-16T00:32:16.231Z,87.15
2018-03-16T00:34:42.369Z,87.32
2018-03-16T00:37:08.448Z,93.20
2018-03-16T00:39:34.441Z,90.07
2018-03-16T00:42:00.583Z,90.60
2018-03-16T00:44:26.598Z,84.82
2018-03-16T00:46:52.594Z,95.43
2018-03-16T00:49:18.642Z,83.10
2018-03-16T00:51:44.728Z,86.20
2018-03-16T00:54:10.833Z,90.65
2018-03-16T00:56:36.840Z,92.82
2018-03-16T00:59:02.872Z,92.82
2018-03-16T01:01:28.974Z,115.57
2018-03-16T01:03:54.982Z,86.90
2018-03-16T01:06:20.984Z,81.30
2018-03-16T01:08:47.017Z,86.60
2018-03-16T01:11:13.036Z,98.32
2018-03-16T01:13:39.046Z,97.43
2018-03-16T01:16:05.055Z,97.10
2018-03-16T01:18:31.041Z,91.87
2018-03-16T01:20:57.045Z,95.93
2018-03-16T01:23:23.034Z,88.85
2018-03-16T01:25:49.105Z,95.18
2018-03-16T01:28:15.111Z,92.12
2018-03-16T01:30:41.136Z,98.00
2018-03-16T01:33:07.155Z,84.87
2018-03-16T01:35:33.154Z,94.43
2018-03-16T01:37:59.280Z,94.03
2018-03-16T01:40:25.301Z,93.07
2018-03-16T01:42:51.350Z,93.68
2018-03-16T01:45:17.376Z,100.70
2018-03-16T01:47:43.385Z,111.32
2018-03-16T01:50:09.398Z,93.47
2018-03-16T01:52:35.423Z,93.75
2018-03-16T01:55:01.500Z,96.70
2018-03-16T01:57:27.517Z,120.05
2018-03-16T01:59:53.547Z,98.60
2018-03-16T02:02:19.592Z,98.47
2018-03-16T02:04:45.601Z,114.53
2018-03-16T02:07:11.690Z,96.43
2018-03-16T02:09:37.794Z,103.07
2018-03-16T02:12:03.791Z,97.70
2018-03-16T02:14:29.804Z,98.75
2018-03-16T02:16:55.881Z,103.80
2018-03-16T02:19:21.888Z,103.80
2018-03-16T02:21:47.910Z,99.97
2018-03-16T02:24:14.034Z,99.13
2018-03-16T02:26:41.077Z,96.43
2018-03-16T02:29:07.163Z,89.43
2018-03-16T02:31:33.192Z,93.75
2018-03-16T02:33:59.193Z,88.22
2018-03-16T02:36:25.201Z,98.00
2018-03-16T02:38:51.206Z,109.72
2018-03-16T02:41:17.189Z,91.97
2018-03-16T02:43:43.258Z,91.25
2018-03-16T02:46:09.362Z,91.12
2018-03-16T02:48:35.864Z,93.53
2018-03-16T02:51:02.312Z,90.95
2018-03-16T02:53:28.456Z,101.18
2018-03-16T02:55:54.501Z,95.25
2018-03-16T02:58:20.499Z,107.22
2018-03-16T03:00:46.648Z,115.97
2018-03-16T03:03:12.660Z,114.15
2018-03-16T03:05:38.693Z,101.85
2018-03-16T03:08:04.701Z,111.15
2018-03-16T03:10:30.735Z,104.93
2018-03-16T03:12:56.744Z,113.90
2018-03-16T03:15:22.780Z,104.57
2018-03-16T03:17:49.101Z,102.32
2018-03-16T03:20:15.122Z,113.62
2018-03-16T03:22:41.120Z,103.55
2018-03-16T03:25:07.140Z,95.38
2018-03-16T03:27:33.166Z,91.00
2018-03-16T03:29:59.162Z,103.70
2018-03-16T03:32:25.302Z,102.32
2018-03-16T03:34:51.646Z,100.72
2018-03-16T03:37:17.766Z,110.07
2018-03-16T03:39:43.796Z,100.07
2018-03-16T03:42:09.890Z,102.25
2018-03-16T03:44:36.235Z,105.87
2018-03-16T03:47:02.418Z,97.97
2018-03-16T03:49:28.548Z,96.95
2018-03-16T03:51:54.575Z,97.50
2018-03-16T03:54:21.003Z,94.15
2018-03-16T03:56:47.024Z,83.65
2018-03-16T03:59:13.028Z,103.40
2018-03-16T04:01:39.038Z,97.60
2018-03-16T04:04:05.070Z,92.90
2018-03-16T04:06:31.082Z,101.93
2018-03-16T04:08:57.119Z,90.32
2018-03-16T04:11:23.120Z,82.72
2018-03-16T04:13:49.140Z,115.45
2018-03-16T04:16:15.189Z,104.20
2018-03-16T04:18:41.284Z,86.05
2018-03-16T04:21:07.410Z,97.90
2018-03-16T04:23:33.482Z,89.00
2018-03-16T04:25:59.554Z,97.47
2018-03-16T04:28:26.043Z,109.37
2018-03-16T04:30:52.055Z,97.05
2018-03-16T04:33:18.076Z,102.10
2018-03-16T04:35:44.177Z,102.00
2018-03-16T04:38:10.299Z,105.87
2018-03-16T04:40:36.385Z,95.28
2018-03-16T04:43:02.421Z,100.97
2018-03-16T04:45:28.483Z,109.85
2018-03-16T04:47:54.515Z,107.90
2018-03-16T04:50:20.518Z,102.40
2018-03-16T04:52:46.565Z,108.72
2018-03-16T04:55:13.179Z,120.47
2018-03-16T04:57:39.271Z,127.07
2018-03-16T05:00:05.274Z,100.32
2018-03-16T05:02:31.342Z,111.32
2018-03-16T05:04:57.411Z,99.65
2018-03-16T05:07:24.056Z,128.43
2018-03-16T05:09:50.497Z,128.40
2018-03-16T05:12:17.036Z,99.68
2018-03-16T05:14:43.118Z,112.60
2018-03-16T05:17:09.205Z,108.32
2018-03-16T05:19:35.194Z,106.37
2018-03-16T05:22:01.216Z,127.45
2018-03-16T05:24:27.201Z,119.72
2018-03-16T05:26:53.218Z,112.93
2018-03-16T05:29:19.252Z,115.68
2018-03-16T05:31:45.387Z,128.15
2018-03-16T05:34:11.588Z,121.35
2018-03-16T05:36:37.920Z,104.15
2018-03-16T05:39:04.450Z,118.28
2018-03-16T05:41:30.511Z,107.37
2018-03-16T05:43:56.625Z,133.00
2018-03-16T05:46:22.636Z,115.40
2018-03-16T05:48:48.649Z,131.50
2018-03-16T05:51:14.733Z,119.30
2018-03-16T05:53:40.790Z,127.10
2018-03-16T05:56:07.094Z,124.18
2018-03-16T05:58:33.125Z,128.32
2018-03-16T06:00:59.134Z,122.05
2018-03-16T06:03:25.142Z,129.87
2018-03-16T06:05:51.250Z,123.50
2018-03-16T06:08:17.317Z,124.43
2018-03-16T06:10:43.326Z,125.00
2018-03-16T06:13:09.330Z,122.62
2018-03-16T06:15:35.423Z,135.48
2018-03-16T06:18:01.452Z,147.48
2018-03-16T06:20:27.517Z,131.25
2018-03-16T06:22:53.492Z,120.70
2018-03-16T06:25:19.512Z,132.35
2018-03-16T06:27:45.657Z,138.88
2018-03-16T06:30:12.121Z,122.47
2018-03-16T06:32:38.125Z,127.43
2018-03-16T06:35:04.250Z,127.38
2018-03-16T06:37:30.343Z,121.87
2018-03-16T06:39:56.453Z,131.00
2018-03-16T06:42:22.553Z,128.68
2018-03-16T06:44:48.697Z,133.68
2018-03-16T06:47:14.655Z,129.77
2018-03-16T06:49:40.757Z,133.85
2018-03-16T06:52:06.779Z,130.15
2018-03-16T06:54:32.791Z,135.90
2018-03-16T06:56:58.822Z,129.50
2018-03-16T06:59:24.878Z,127.55
2018-03-16T07:01:50.880Z,156.02
2018-03-16T07:04:16.905Z,147.98
2018-03-16T07:06:42.972Z,143.90
2018-03-16T07:09:09.080Z,120.68
2018-03-16T07:11:35.133Z,132.60
2018-03-16T07:14:01.294Z,115.37
2018-03-16T07:16:27.330Z,131.15
2018-03-16T07:18:53.368Z,129.70
2018-03-16T07:21:19.455Z,125.03
2018-03-16T07:23:45.539Z,129.07
2018-03-16T07:26:11.567Z,149.60
2018-03-16T07:28:37.607Z,132.32
2018-03-16T07:31:03.682Z,133.32
2018-03-16T07:33:29.765Z,130.07
2018-03-16T07:35:55.769Z,145.98
2018-03-16T07:38:21.827Z,142.15
2018-03-16T07:40:47.846Z,152.18
2018-03-16T07:43:13.989Z,141.48
2018-03-16T07:45:45.966Z,149.65
2018-03-16T07:48:11.973Z,141.07
2018-03-16T07:50:38.098Z,154.25
2018-03-16T07:53:04.258Z,155.73
2018-03-16T07:55:30.462Z,152.23
2018-03-16T08:00:29.168Z,141.52
2018-03-16T08:02:55.253Z,135.75
2018-03-16T08:05:21.277Z,133.87
2018-03-16T08:07:47.359Z,140.98
2018-03-16T08:10:13.369Z,132.98
2018-03-16T08:12:39.442Z,118.10
2018-03-16T08:15:05.462Z,143.35
2018-03-16T08:17:32.224Z,122.10
2018-03-16T08:19:58.342Z,117.62
2018-03-16T08:22:24.469Z,118.43
2018-03-16T08:24:50.464Z,119.70
2018-03-16T08:27:16.534Z,150.40
2018-03-16T08:29:42.612Z,128.38
2018-03-16T08:32:08.643Z,117.78
2018-03-16T08:34:34.676Z,126.68
2018-03-16T08:37:00.771Z,126.40
2018-03-16T08:39:26.802Z,130.00
2018-03-16T08:41:52.812Z,128.48
2018-03-16T08:44:18.933Z,132.50
2018-03-16T08:46:44.974Z,120.78
2018-03-16T08:49:11.057Z,122.55
2018-03-16T08:51:37.122Z,122.28
2018-03-16T08:54:03.134Z,122.57
2018-03-16T08:56:29.205Z,144.45
2018-03-16T08:58:55.212Z,120.22
2018-03-16T09:01:21.228Z,114.37
2018-03-16T09:03:47.262Z,115.10
2018-03-16T09:06:13.291Z,114.43
2018-03-16T09:08:39.307Z,114.20
2018-03-16T09:11:05.439Z,119.00
2018-03-16T09:13:31.623Z,117.53
2018-03-16T09:15:57.669Z,113.95
2018-03-16T09:18:23.949Z,106.07
2018-03-16T09:20:50.094Z,115.12
2018-03-16T09:23:16.199Z,108.93
2018-03-16T09:25:42.344Z,108.37
2018-03-16T09:28:08.604Z,116.68
2018-03-16T09:30:34.642Z,126.25
2018-03-16T09:33:00.687Z,115.50
2018-03-16T09:35:26.764Z,104.50
2018-03-16T09:37:52.841Z,108.43
2018-03-16T09:40:18.869Z,105.75
2018-03-16T09:42:44.869Z,116.37
2018-03-16T09:45:10.869Z,114.12
2018-03-16T09:47:36.870Z,110.18
2018-03-16T09:50:02.976Z,103.80
2018-03-16T09:52:28.985Z,110.45
2018-03-16T09:55:07.094Z,110.47
2018-03-16T09:57:33.114Z,101.45
2018-03-16T09:59:59.163Z,113.55
2018-03-16T10:02:25.185Z,116.60
2018-03-16T10:04:51.269Z,128.65
2018-03-16T10:07:17.296Z,133.90
2018-03-16T10:09:43.356Z,125.93
2018-03-16T10:12:09.387Z,141.68
2018-03-16T10:14:35.419Z,121.55
2018-03-16T10:17:01.507Z,143.55
2018-03-16T10:19:27.566Z,123.40
2018-03-16T10:21:53.583Z,125.20
2018-03-16T10:24:19.590Z,126.75
2018-03-16T10:26:45.721Z,120.62
2018-03-16T10:29:11.775Z,126.18
2018-03-16T10:31:37.826Z,133.18
2018-03-16T10:34:03.864Z,127.95
2018-03-16T10:36:30.007Z,127.43
2018-03-16T10:38:56.149Z,125.82
2018-03-16T10:41:22.403Z,140.57
2018-03-16T10:43:48.521Z,122.10
2018-03-16T10:46:14.570Z,121.70
2018-03-16T10:48:40.632Z,128.38
2018-03-16T10:51:06.804Z,123.30
2018-03-16T10:53:32.872Z,129.40
2018-03-16T10:55:58.927Z,139.57
2018-03-16T10:58:24.972Z,132.77
2018-03-16T11:00:56.886Z,132.40
2018-03-16T11:03:22.940Z,131.98
2018-03-16T11:05:53.947Z,127.95
2018-03-16T11:08:26.208Z,127.00
2018-03-16T11:10:52.237Z,130.23
2018-03-16T11:13:18.302Z,148.82
2018-03-16T11:15:44.418Z,136.52
2018-03-16T11:18:10.574Z,131.20
2018-03-16T11:20:36.616Z,134.43
2018-03-16T11:23:02.655Z,131.68
2018-03-16T11:25:28.728Z,140.68
2018-03-16T11:27:54.784Z,141.85
2018-03-16T11:30:20.843Z,143.40
2018-03-16T11:32:46.953Z,132.75
2018-03-16T11:35:13.056Z,149.25
2018-03-16T11:37:39.094Z,135.20
2018-03-16T11:40:05.114Z,123.93
2018-03-16T11:42:31.194Z,133.98
2018-03-16T11:44:57.288Z,140.60
2018-03-16T11:47:23.349Z,143.60
2018-03-16T11:49:49.382Z,147.87
2018-03-16T11:52:15.449Z,137.93
2018-03-16T11:54:41.543Z,126.22
2018-03-16T11:57:07.610Z,140.62
2018-03-16T11:59:33.800Z,149.90
2018-03-16T12:01:59.997Z,131.60
2018-03-16T12:04:26.223Z,139.88
2018-03-16T12:06:52.367Z,160.57
2018-03-16T12:09:18.401Z,123.10
2018-03-16T12:11:44.486Z,111.65
2018-03-16T12:14:11.061Z,119.35
2018-03-16T12:16:37.089Z,125.15
2018-03-16T12:19:03.108Z,116.65
2018-03-16T12:21:29.136Z,112.40
2018-03-16T12:23:55.227Z,114.35
2018-03-16T12:26:21.255Z,123.35
2018-03-16T12:28:49.951Z,138.27
2018-03-16T12:31:13.429Z,133.45
2018-03-16T12:33:40.485Z,125.12
2018-03-16T12:36:06.547Z,133.87
2018-03-16T12:38:32.684Z,123.05
2018-03-16T12:40:58.727Z,123.10
2018-03-16T12:43:24.744Z,131.55
2018-03-16T12:45:50.794Z,125.60
2018-03-16T12:48:16.930Z,122.72
2018-03-16T12:50:42.973Z,121.87
2018-03-16T12:53:09.070Z,129.60
2018-03-16T12:55:36.448Z,109.87
2018-03-16T12:58:02.535Z,103.57
2018-03-16T13:00:28.797Z,104.75
2018-03-16T13:02:54.971Z,112.60
2018-03-16T13:05:21.039Z,98.32
2018-03-16T13:07:47.107Z,99.53
2018-03-16T13:10:13.142Z,89.32
2018-03-16T13:12:39.196Z,76.37
2018-03-16T13:15:05.392Z,83.93
2018-03-16T13:17:31.438Z,98.30
2018-03-16T13:19:57.532Z,81.97
2018-03-16T13:22:23.628Z,92.37
2018-03-16T13:24:49.655Z,91.32
2018-03-16T13:27:15.680Z,92.53
2018-03-16T13:29:41.704Z,74.10
2018-03-16T13:32:07.829Z,75.78
2018-03-16T13:34:33.892Z,81.50
2018-03-16T13:36:59.918Z,72.65
2018-03-16T13:39:26.119Z,67.65
2018-03-16T13:41:52.192Z,64.95
2018-03-16T13:44:18.298Z,59.33
2018-03-16T13:46:44.366Z,62.38
2018-03-16T13:49:10.470Z,69.22
2018-03-16T13:51:36.630Z,72.32
2018-03-16T13:54:02.768Z,69.25
2018-03-16T13:56:28.841Z,69.75
2018-03-16T13:58:54.886Z,81.53
2018-03-16T14:01:20.911Z,67.05
2018-03-16T14:03:47.089Z,80.25
2018-03-16T14:06:13.193Z,65.65
2018-03-16T14:08:39.281Z,58.65
2018-03-16T14:11:05.304Z,74.78
2018-03-16T14:13:31.351Z,70.35
2018-03-16T14:15:57.414Z,69.87
2018-03-16T14:18:23.533Z,54.92
2018-03-16T14:20:49.562Z,56.47
2018-03-16T14:23:15.660Z,60.10
2018-03-16T14:25:41.708Z,63.63
2018-03-16T14:28:07.858Z,63.83
2018-03-16T14:30:33.869Z,71.50
2018-03-16T14:32:59.946Z,61.22
2018-03-16T14:35:26.011Z,191.48
2018-03-16T14:37:52.178Z,113.35
2018-03-16T14:40:18.352Z,84.82
2018-03-16T14:42:44.550Z,52.38
2018-03-16T14:45:10.563Z,57.50
2018-03-16T14:47:36.640Z,56.13
2018-03-16T14:50:02.764Z,44.80
2018-03-16T14:52:28.779Z,51.50
2018-03-16T14:54:54.870Z,59.63
2018-03-16T14:57:20.864Z,55.17
2018-03-16T14:59:46.906Z,63.20
2018-03-16T15:02:12.944Z,53.08
2018-03-16T15:04:38.986Z,59.83
2018-03-16T15:07:05.002Z,60.85
2018-03-16T15:09:31.054Z,58.60
2018-03-16T15:11:57.091Z,57.65
2018-03-16T15:14:23.110Z,53.92
2018-03-16T15:16:49.173Z,62.28
2018-03-16T15:19:15.170Z,53.50
2018-03-16T15:21:41.312Z,56.95
2018-03-16T15:24:07.308Z,49.65
2018-03-16T15:26:33.344Z,49.30
2018-03-16T15:28:59.537Z,54.13
2018-03-16T15:31:25.590Z,58.63
2018-03-16T15:33:51.742Z,58.05
2018-03-16T15:36:17.895Z,54.65
2018-03-16T15:38:43.998Z,56.60
2018-03-16T15:41:10.711Z,47.45
2018-03-16T15:43:36.753Z,53.63
2018-03-16T15:46:02.843Z,52.08
2018-03-16T15:48:29.048Z,50.17
2018-03-16T15:50:55.089Z,50.70
2018-03-16T15:53:21.111Z,45.53
2018-03-16T15:55:47.145Z,41.97
2018-03-16T15:58:13.138Z,43.47
2018-03-16T16:00:39.130Z,49.38
2018-03-16T16:03:05.188Z,42.83
2018-03-16T16:05:31.347Z,47.33
2018-03-16T16:07:57.340Z,44.08
2018-03-16T16:10:23.339Z,43.85
2018-03-16T16:12:49.365Z,47.25
2018-03-16T16:15:15.421Z,41.72
2018-03-16T16:17:41.555Z,45.70
2018-03-16T16:20:07.577Z,50.85
2018-03-16T16:22:33.773Z,49.55
2018-03-16T16:24:59.805Z,46.00
2018-03-16T16:27:25.856Z,45.05
2018-03-16T16:29:51.952Z,42.10
2018-03-16T16:32:18.102Z,43.72
2018-03-16T16:34:44.163Z,40.90
2018-03-16T16:37:10.191Z,41.75
2018-03-16T16:39:36.305Z,38.38
2018-03-16T16:42:02.445Z,41.67
2018-03-16T16:44:28.558Z,39.25
2018-03-16T16:46:54.567Z,46.35
2018-03-16T16:49:20.586Z,40.78
2018-03-16T16:51:46.846Z,41.13
2018-03-16T16:54:12.805Z,40.58
2018-03-16T16:56:38.840Z,34.25
2018-03-16T16:59:04.869Z,31.33
2018-03-16T17:01:30.929Z,33.35
2018-03-16T17:03:56.933Z,38.40
2018-03-16T17:06:22.954Z,42.00
2018-03-16T17:08:48.962Z,38.63
2018-03-16T17:11:15.021Z,44.50
2018-03-16T17:13:41.020Z,42.22
2018-03-16T17:16:07.042Z,38.33
2018-03-16T17:18:33.720Z,38.33
2018-03-16T17:20:59.774Z,36.30
2018-03-16T17:23:25.803Z,39.38
2018-03-16T17:25:51.832Z,40.47
2018-03-16T17:28:17.998Z,43.72
2018-03-16T17:30:44.666Z,45.33
2018-03-16T17:33:11.016Z,49.50
2018-03-16T17:35:44.107Z,46.75
2018-03-16T17:38:11.089Z,49.22
2018-03-16T17:40:37.127Z,46.72
2018-03-16T17:43:03.131Z,52.38
2018-03-16T17:45:29.151Z,48.67
2018-03-16T17:47:55.176Z,47.55
2018-03-16T17:50:21.240Z,51.78
2018-03-16T17:52:47.239Z,46.65
2018-03-16T17:55:13.262Z,49.22
2018-03-16T17:57:39.267Z,47.85
2018-03-16T18:00:05.289Z,51.05
2018-03-16T18:02:31.606Z,50.17
2018-03-16T18:04:57.687Z,51.67
2018-03-16T18:07:23.757Z,54.58
2018-03-16T18:09:49.841Z,52.83
2018-03-16T18:12:15.930Z,49.72
2018-03-16T18:14:41.999Z,55.42
2018-03-16T18:17:08.089Z,49.50
2018-03-16T18:19:34.123Z,51.88
2018-03-16T18:22:00.331Z,49.55
2018-03-16T18:24:26.347Z,48.13
2018-03-16T18:26:52.381Z,45.53
2018-03-16T18:29:18.503Z,48.35
2018-03-16T18:31:44.658Z,49.53
2018-03-16T18:34:10.725Z,47.25
2018-03-16T18:36:36.758Z,45.75
2018-03-16T18:39:02.934Z,46.90
2018-03-16T18:41:28.946Z,49.28
2018-03-16T18:43:54.993Z,48.30
2018-03-16T18:46:21.002Z,47.35
2018-03-16T18:48:47.092Z,48.50
2018-03-16T18:51:13.189Z,49.00
2018-03-16T18:53:39.315Z,51.50
2018-03-16T18:56:05.398Z,56.92
2018-03-16T18:58:32.143Z,54.65
2018-03-16T19:00:58.226Z,55.72
2018-03-16T19:03:24.381Z,46.33
2018-03-16T19:05:50.461Z,48.30
2018-03-16T19:08:16.478Z,44.05
2018-03-16T19:10:42.638Z,45.97
2018-03-16T19:13:08.926Z,42.22
2018-03-16T19:15:35.013Z,45.33
2018-03-16T19:18:01.107Z,40.60
2018-03-16T19:20:27.129Z,45.00
2018-03-16T19:22:53.130Z,41.35
2018-03-16T19:25:19.167Z,46.55
2018-03-16T19:27:45.198Z,41.10
2018-03-16T19:30:11.198Z,44.15
2018-03-16T19:32:37.253Z,43.80
2018-03-16T19:35:03.314Z,46.67
2018-03-16T19:37:29.412Z,47.95
2018-03-16T19:39:55.510Z,44.30
2018-03-16T19:42:21.523Z,41.13
2018-03-16T19:44:47.559Z,44.97
2018-03-16T19:47:13.657Z,40.67
2018-03-16T19:49:39.695Z,42.88
2018-03-16T19:52:05.724Z,42.30
2018-03-16T19:54:31.764Z,39.63
2018-03-16T19:56:57.849Z,39.85
2018-03-16T19:59:23.910Z,41.63
2018-03-16T20:01:49.937Z,40.03
2018-03-16T20:04:15.983Z,42.10
2018-03-16T20:06:42.191Z,40.35
2018-03-16T20:09:08.228Z,44.20
2018-03-16T20:11:34.270Z,42.25
2018-03-16T20:14:00.382Z,39.65
2018-03-16T20:16:26.580Z,37.53
2018-03-16T20:18:52.646Z,44.33
2018-03-16T20:21:18.674Z,38.55
2018-03-16T20:23:44.803Z,42.55
2018-03-16T20:26:10.978Z,40.60
2018-03-16T20:28:37.024Z,37.53
2018-03-16T20:31:03.078Z,36.85
2018-03-16T20:33:29.155Z,36.33
2018-03-16T20:35:55.203Z,32.35
2018-03-16T20:38:21.402Z,34.15
2018-03-16T20:40:47.438Z,32.85
2018-03-16T20:43:13.503Z,35.40
2018-03-16T20:45:39.567Z,37.33
2018-03-16T20:48:05.588Z,37.85
2018-03-16T20:50:31.652Z,33.35
2018-03-16T20:52:57.853Z,34.40
2018-03-16T20:55:23.924Z,35.50
2018-03-16T20:57:49.944Z,34.55
2018-03-16T21:00:16.157Z,37.13
2018-03-16T21:02:42.287Z,40.75
2018-03-16T21:05:08.374Z,34.45
2018-03-16T21:07:34.463Z,35.35
2018-03-16T21:10:00.612Z,35.95
2018-03-16T21:12:26.693Z,40.80
2018-03-16T21:14:52.762Z,38.55
2018-03-16T21:17:18.787Z,33.50
2018-03-16T21:19:44.799Z,35.90
2018-03-16T21:22:11.020Z,38.17
2018-03-16T21:24:37.063Z,34.55
2018-03-16T21:27:03.287Z,34.83
2018-03-16T21:29:29.330Z,35.63
2018-03-16T21:31:55.352Z,35.42
2018-03-16T21:34:21.418Z,36.35
2018-03-16T21:36:47.529Z,37.78
2018-03-16T21:39:13.631Z,40.00
2018-03-16T21:41:39.645Z,35.05
2018-03-16T21:44:05.678Z,33.88
2018-03-16T21:46:31.704Z,31.70
2018-03-16T21:48:58.703Z,34.03
2018-03-16T21:51:24.735Z,36.05
2018-03-16T21:53:50.886Z,35.38
2018-03-16T21:56:17.006Z,33.63
2018-03-16T21:58:43.058Z,35.33
2018-03-16T22:01:09.157Z,36.08
2018-03-16T22:03:35.688Z,32.97
2018-03-16T22:06:01.936Z,35.63
2018-03-16T22:08:28.366Z,32.05
2018-03-16T22:10:54.396Z,34.78
2018-03-16T22:13:20.450Z,34.10
2018-03-16T22:15:46.557Z,35.28
2018-03-16T22:18:13.207Z,32.70
2018-03-16T22:20:39.249Z,34.08
2018-03-16T22:23:05.278Z,35.42
2018-03-16T22:25:31.341Z,32.97
2018-03-16T22:27:57.354Z,35.08
2018-03-16T22:30:23.405Z,32.78
2018-03-16T22:32:49.456Z,34.10
2018-03-16T22:35:15.485Z,32.03
2018-03-16T22:37:41.491Z,32.30
2018-03-16T22:40:07.545Z,33.72
2018-03-16T22:42:33.555Z,33.08
2018-03-16T22:44:59.550Z,31.60
2018-03-16T22:47:25.647Z,32.55
2018-03-16T22:49:51.646Z,33.05
2018-03-16T22:52:17.748Z,31.37
2018-03-16T22:54:43.793Z,29.98
2018-03-16T22:57:09.847Z,30.88
2018-03-16T22:59:35.893Z,29.63
2018-03-16T23:02:02.086Z,29.20
2018-03-16T23:04:28.174Z,27.80
2018-03-16T23:06:54.409Z,31.98
2018-03-16T23:09:20.447Z,29.50
2018-03-16T23:11:47.090Z,30.42
2018-03-16T23:14:13.136Z,32.95
2018-03-16T23:16:39.178Z,32.10
2018-03-16T23:19:05.243Z,32.53
2018-03-16T23:21:31.433Z,32.25
2018-03-16T23:23:57.472Z,32.55
2018-03-16T23:26:23.522Z,31.52
2018-03-16T23:28:50.434Z,32.33
2018-03-16T23:31:16.525Z,32.97
2018-03-16T23:33:42.700Z,29.40
2018-03-16T23:36:08.759Z,29.50
2018-03-16T23:38:34.813Z,28.55
2018-03-16T23:41:00.909Z,28.55
2018-03-16T23:43:26.906Z,30.48
2018-03-16T23:45:52.922Z,29.25
2018-03-16T23:48:18.946Z,28.48
2018-03-16T23:50:44.947Z,29.45
2018-03-16T23:53:10.971Z,26.73
2018-03-16T23:55:37.002Z,27.30
2018-03-16T23:58:03.098Z,29.02
